sensor_id;sensor_type;location;lat;lon;timestamp;pressure;altitude;pressure_sealevel;temperature;humidity
33151;BME280;19508;42.578;23.416;2023-03-20T00:01:23;93998.66;;;6.41;60.34
33151;BME280;19508;42.578;23.416;2023-03-20T00:03:49;94000.88;;;6.44;60.05
33151;BME280;19508;42.578;23.416;2023-03-20T00:06:16;94002.22;;;6.35;60.16
33151;BME280;19508;42.578;23.416;2023-03-20T00:08:44;94004.44;;;6.38;60.11
33151;BME280;19508;42.578;23.416;2023-03-20T00:11:39;94000.19;;;6.31;60.05
33151;BME280;19508;42.578;23.416;2023-03-20T00:14:08;93998.78;;;6.10;59.84
33151;BME280;19508;42.578;23.416;2023-03-20T00:16:44;93993.13;;;6.00;59.83
33151;BME280;19508;42.578;23.416;2023-03-20T00:19:21;93993.94;;;6.00;59.75
33151;BME280;19508;42.578;23.416;2023-03-20T00:21:48;93987.13;;;5.79;59.88
33151;BME280;19508;42.578;23.416;2023-03-20T00:24:15;93987.84;;;5.68;60.46
33151;BME280;19508;42.578;23.416;2023-03-20T00:26:42;93990.97;;;5.65;60.59
33151;BME280;19508;42.578;23.416;2023-03-20T00:29:21;93974.59;;;5.55;61.08
33151;BME280;19508;42.578;23.416;2023-03-20T00:31:48;93977.63;;;5.40;61.40
33151;BME280;19508;42.578;23.416;2023-03-20T00:34:18;93973.41;;;5.51;61.47
33151;BME280;19508;42.578;23.416;2023-03-20T00:36:44;93976.25;;;5.56;61.40
33151;BME280;19508;42.578;23.416;2023-03-20T00:39:10;93968.50;;;5.48;61.43
33151;BME280;19508;42.578;23.416;2023-03-20T00:47:02;93964.66;;;5.12;62.72
33151;BME280;19508;42.578;23.416;2023-03-20T00:49:33;93965.09;;;5.09;62.60
33151;BME280;19508;42.578;23.416;2023-03-20T00:51:59;93969.28;;;4.98;62.76
33151;BME280;19508;42.578;23.416;2023-03-20T00:54:26;93963.16;;;4.91;63.02
33151;BME280;19508;42.578;23.416;2023-03-20T00:57:05;93962.25;;;5.04;62.74
33151;BME280;19508;42.578;23.416;2023-03-20T00:59:41;93953.84;;;5.07;62.16
33151;BME280;19508;42.578;23.416;2023-03-20T01:02:11;93956.06;;;5.10;61.64
33151;BME280;19508;42.578;23.416;2023-03-20T01:04:39;93961.72;;;5.20;61.34
33151;BME280;19508;42.578;23.416;2023-03-20T01:07:08;93955.78;;;5.18;61.46
33151;BME280;19508;42.578;23.416;2023-03-20T01:09:35;93947.47;;;5.08;61.80
33151;BME280;19508;42.578;23.416;2023-03-20T01:12:02;93954.75;;;5.19;61.42
33151;BME280;19508;42.578;23.416;2023-03-20T01:14:27;93945.78;;;5.14;61.79
33151;BME280;19508;42.578;23.416;2023-03-20T01:16:53;93954.75;;;5.19;61.83
33151;BME280;19508;42.578;23.416;2023-03-20T01:19:18;93946.41;;;5.09;62.19
33151;BME280;19508;42.578;23.416;2023-03-20T01:21:43;93942.88;;;5.15;62.06
33151;BME280;19508;42.578;23.416;2023-03-20T01:24:09;93954.88;;;5.06;62.29
33151;BME280;19508;42.578;23.416;2023-03-20T01:26:42;93950.31;;;5.13;62.17
33151;BME280;19508;42.578;23.416;2023-03-20T01:29:26;93949.34;;;5.01;62.55
33151;BME280;19508;42.578;23.416;2023-03-20T01:31:52;93950.97;;;5.02;62.41
33151;BME280;19508;42.578;23.416;2023-03-20T01:34:18;93948.16;;;4.97;62.24
33151;BME280;19508;42.578;23.416;2023-03-20T01:36:53;93950.72;;;5.10;62.39
33151;BME280;19508;42.578;23.416;2023-03-20T01:39:20;93950.34;;;5.06;62.37
33151;BME280;19508;42.578;23.416;2023-03-20T01:41:49;93954.47;;;5.02;61.92
33151;BME280;19508;42.578;23.416;2023-03-20T01:44:28;93947.38;;;4.90;62.28
33151;BME280;19508;42.578;23.416;2023-03-20T01:46:55;93961.13;;;4.87;62.31
33151;BME280;19508;42.578;23.416;2023-03-20T01:51:46;93956.97;;;4.97;62.48
33151;BME280;19508;42.578;23.416;2023-03-20T01:57:06;93950.31;;;4.81;62.66
33151;BME280;19508;42.578;23.416;2023-03-20T01:59:57;93950.13;;;4.76;62.91
33151;BME280;19508;42.578;23.416;2023-03-20T02:02:29;93954.66;;;4.69;62.95
33151;BME280;19508;42.578;23.416;2023-03-20T02:04:59;93954.31;;;4.59;63.56
33151;BME280;19508;42.578;23.416;2023-03-20T02:07:26;93953.84;;;4.69;63.61
33151;BME280;19508;42.578;23.416;2023-03-20T02:09:52;93952.69;;;4.58;64.03
33151;BME280;19508;42.578;23.416;2023-03-20T02:12:18;93955.19;;;4.53;64.44
33151;BME280;19508;42.578;23.416;2023-03-20T02:14:45;93954.81;;;4.43;64.30
33151;BME280;19508;42.578;23.416;2023-03-20T02:17:11;93943.13;;;4.44;64.44
33151;BME280;19508;42.578;23.416;2023-03-20T02:22:29;93946.53;;;4.19;64.56
33151;BME280;19508;42.578;23.416;2023-03-20T02:41:34;93954.28;;;3.36;67.00
33151;BME280;19508;42.578;23.416;2023-03-20T02:44:08;93940.81;;;3.25;67.56
33151;BME280;19508;42.578;23.416;2023-03-20T02:52:12;93956.56;;;3.20;67.75
33151;BME280;19508;42.578;23.416;2023-03-20T02:57:17;93960.25;;;3.19;68.16
33151;BME280;19508;42.578;23.416;2023-03-20T02:59:56;93952.84;;;3.14;68.46
33151;BME280;19508;42.578;23.416;2023-03-20T03:04:58;93936.69;;;2.89;68.65
33151;BME280;19508;42.578;23.416;2023-03-20T03:07:29;93940.38;;;2.88;68.48
33151;BME280;19508;42.578;23.416;2023-03-20T03:10:06;93939.56;;;2.94;68.58
33151;BME280;19508;42.578;23.416;2023-03-20T03:12:37;93940.56;;;2.67;69.34
33151;BME280;19508;42.578;23.416;2023-03-20T03:15:14;93954.69;;;2.87;68.88
33151;BME280;19508;42.578;23.416;2023-03-20T03:17:43;93944.03;;;2.74;68.72
33151;BME280;19508;42.578;23.416;2023-03-20T03:20:21;93936.06;;;2.74;69.15
33151;BME280;19508;42.578;23.416;2023-03-20T03:22:48;93943.00;;;2.68;69.25
33151;BME280;19508;42.578;23.416;2023-03-20T03:25:13;93941.56;;;2.72;69.39
33151;BME280;19508;42.578;23.416;2023-03-20T03:27:42;93936.25;;;2.66;69.47
33151;BME280;19508;42.578;23.416;2023-03-20T03:30:19;93937.47;;;2.63;69.71
33151;BME280;19508;42.578;23.416;2023-03-20T03:32:49;93934.81;;;2.57;69.86
33151;BME280;19508;42.578;23.416;2023-03-20T03:35:21;93942.38;;;2.60;69.88
33151;BME280;19508;42.578;23.416;2023-03-20T03:37:58;93930.72;;;2.61;70.00
33151;BME280;19508;42.578;23.416;2023-03-20T03:45:48;93924.72;;;2.39;71.12
33151;BME280;19508;42.578;23.416;2023-03-20T03:48:21;93938.66;;;2.47;70.84
33151;BME280;19508;42.578;23.416;2023-03-20T03:50:55;93934.16;;;2.41;71.10
33151;BME280;19508;42.578;23.416;2023-03-20T03:53:28;93933.13;;;2.42;70.85
33151;BME280;19508;42.578;23.416;2023-03-20T03:55:59;93932.91;;;2.37;70.92
33151;BME280;19508;42.578;23.416;2023-03-20T03:58:29;93940.09;;;2.43;70.72
33151;BME280;19508;42.578;23.416;2023-03-20T04:00:58;93944.34;;;2.31;71.26
33151;BME280;19508;42.578;23.416;2023-03-20T04:03:28;93952.53;;;2.36;71.39
33151;BME280;19508;42.578;23.416;2023-03-20T04:05:55;93945.19;;;2.32;71.47
33151;BME280;19508;42.578;23.416;2023-03-20T04:08:22;93942.69;;;2.30;71.56
33151;BME280;19508;42.578;23.416;2023-03-20T04:10:47;93937.84;;;2.40;71.45
33151;BME280;19508;42.578;23.416;2023-03-20T04:13:13;93933.72;;;2.38;71.37
33151;BME280;19508;42.578;23.416;2023-03-20T04:15:40;93934.53;;;2.38;71.07
33151;BME280;19508;42.578;23.416;2023-03-20T04:18:06;93928.41;;;2.38;71.04
33151;BME280;19508;42.578;23.416;2023-03-20T04:20:32;93926.75;;;2.30;71.88
33151;BME280;19508;42.578;23.416;2023-03-20T04:22:58;93927.41;;;2.32;71.46
33151;BME280;19508;42.578;23.416;2023-03-20T04:25:25;93932.91;;;2.37;71.71
33151;BME280;19508;42.578;23.416;2023-03-20T04:27:53;93928.63;;;2.36;71.54
33151;BME280;19508;42.578;23.416;2023-03-20T04:30:19;93921.66;;;2.29;71.74
33151;BME280;19508;42.578;23.416;2023-03-20T04:32:45;93921.88;;;2.34;71.35
33151;BME280;19508;42.578;23.416;2023-03-20T04:35:10;93936.19;;;2.39;71.49
33151;BME280;19508;42.578;23.416;2023-03-20T04:37:36;93930.88;;;2.39;71.62
33151;BME280;19508;42.578;23.416;2023-03-20T04:40:02;93932.53;;;2.47;71.77
33151;BME280;19508;42.578;23.416;2023-03-20T04:42:27;93923.56;;;2.48;71.97
33151;BME280;19508;42.578;23.416;2023-03-20T04:44:52;93918.22;;;2.54;71.85
33151;BME280;19508;42.578;23.416;2023-03-20T04:47:18;93916.81;;;2.59;71.83
33151;BME280;19508;42.578;23.416;2023-03-20T04:49:43;93912.94;;;2.68;71.83
33151;BME280;19508;42.578;23.416;2023-03-20T04:52:09;93919.91;;;2.82;71.82
33151;BME280;19508;42.578;23.416;2023-03-20T04:54:34;93922.78;;;2.87;71.86
33151;BME280;19508;42.578;23.416;2023-03-20T04:57:00;93915.41;;;2.89;71.47
33151;BME280;19508;42.578;23.416;2023-03-20T04:59:25;93917.66;;;3.05;71.14
33151;BME280;19508;42.578;23.416;2023-03-20T05:01:51;93917.25;;;3.08;71.34
33151;BME280;19508;42.578;23.416;2023-03-20T05:04:16;93932.41;;;3.28;70.75
33151;BME280;19508;42.578;23.416;2023-03-20T05:06:42;93937.91;;;3.46;70.40
33151;BME280;19508;42.578;23.416;2023-03-20T05:09:09;93938.88;;;3.58;69.84
33151;BME280;19508;42.578;23.416;2023-03-20T05:11:35;93940.28;;;3.81;69.84
33151;BME280;19508;42.578;23.416;2023-03-20T05:14:00;93944.72;;;4.00;69.66
33151;BME280;19508;42.578;23.416;2023-03-20T05:16:26;93943.22;;;4.17;68.72
33151;BME280;19508;42.578;23.416;2023-03-20T05:18:51;93935.66;;;4.21;67.70
33151;BME280;19508;42.578;23.416;2023-03-20T05:21:17;93950.88;;;4.52;67.60
33151;BME280;19508;42.578;23.416;2023-03-20T05:23:42;93929.66;;;4.70;67.86
33151;BME280;19508;42.578;23.416;2023-03-20T05:26:08;93948.91;;;5.04;67.65
33151;BME280;19508;42.578;23.416;2023-03-20T05:28:33;93953.91;;;5.25;66.02
33151;BME280;19508;42.578;23.416;2023-03-20T05:30:58;93953.09;;;5.50;64.86
33151;BME280;19508;42.578;23.416;2023-03-20T05:33:24;93946.44;;;5.77;64.97
33151;BME280;19508;42.578;23.416;2023-03-20T05:35:49;93945.63;;;6.02;63.86
33151;BME280;19508;42.578;23.416;2023-03-20T05:38:15;93955.03;;;6.22;63.75
33151;BME280;19508;42.578;23.416;2023-03-20T05:40:40;93947.38;;;6.44;63.32
33151;BME280;19508;42.578;23.416;2023-03-20T05:43:06;93958.00;;;6.81;61.39
33151;BME280;19508;42.578;23.416;2023-03-20T05:45:32;93952.66;;;7.11;61.28
33151;BME280;19508;42.578;23.416;2023-03-20T05:47:57;93956.81;;;7.07;59.59
33151;BME280;19508;42.578;23.416;2023-03-20T05:50:22;93954.13;;;7.49;58.51
33151;BME280;19508;42.578;23.416;2023-03-20T05:52:48;93960.09;;;7.62;58.18
33151;BME280;19508;42.578;23.416;2023-03-20T05:55:14;93967.22;;;8.04;56.85
33151;BME280;19508;42.578;23.416;2023-03-20T05:57:40;93958.34;;;8.15;56.04
33151;BME280;19508;42.578;23.416;2023-03-20T06:00:06;93969.88;;;8.15;56.32
33151;BME280;19508;42.578;23.416;2023-03-20T06:02:33;93964.97;;;8.36;55.75
33151;BME280;19508;42.578;23.416;2023-03-20T06:04:58;93958.63;;;8.65;54.39
33151;BME280;19508;42.578;23.416;2023-03-20T06:07:24;93960.56;;;8.82;53.51
33151;BME280;19508;42.578;23.416;2023-03-20T06:09:49;93961.50;;;9.04;52.69
33151;BME280;19508;42.578;23.416;2023-03-20T06:12:16;93958.63;;;9.39;51.94
33151;BME280;19508;42.578;23.416;2023-03-20T06:14:41;93958.19;;;9.59;51.65
33151;BME280;19508;42.578;23.416;2023-03-20T06:17:07;93952.72;;;9.54;51.85
33151;BME280;19508;42.578;23.416;2023-03-20T06:19:32;93947.03;;;9.50;52.11
33151;BME280;19508;42.578;23.416;2023-03-20T06:21:57;93949.19;;;9.37;52.31
33151;BME280;19508;42.578;23.416;2023-03-20T06:24:23;93954.72;;;9.30;52.39
33151;BME280;19508;42.578;23.416;2023-03-20T06:26:49;93953.25;;;9.39;53.04
33151;BME280;19508;42.578;23.416;2023-03-20T06:29:14;93961.19;;;9.63;52.52
33151;BME280;19508;42.578;23.416;2023-03-20T06:31:40;93961.00;;;10.03;50.74
33151;BME280;19508;42.578;23.416;2023-03-20T06:34:05;93956.03;;;10.28;49.94
33151;BME280;19508;42.578;23.416;2023-03-20T06:36:31;93956.34;;;10.32;49.67
33151;BME280;19508;42.578;23.416;2023-03-20T06:38:56;93955.19;;;10.44;49.71
33151;BME280;19508;42.578;23.416;2023-03-20T06:41:22;93959.06;;;10.54;49.44
33151;BME280;19508;42.578;23.416;2023-03-20T06:43:47;93958.31;;;10.80;48.80
33151;BME280;19508;42.578;23.416;2023-03-20T06:46:13;93948.19;;;11.14;48.11
33151;BME280;19508;42.578;23.416;2023-03-20T06:48:38;93948.63;;;11.28;46.65
33151;BME280;19508;42.578;23.416;2023-03-20T06:51:05;93942.38;;;11.54;46.91
33151;BME280;19508;42.578;23.416;2023-03-20T06:53:32;93945.09;;;11.54;46.59
33151;BME280;19508;42.578;23.416;2023-03-20T06:55:57;93942.72;;;11.90;45.30
33151;BME280;19508;42.578;23.416;2023-03-20T06:58:23;93946.06;;;12.07;46.88
33151;BME280;19508;42.578;23.416;2023-03-20T07:00:48;93943.38;;;12.55;45.28
33151;BME280;19508;42.578;23.416;2023-03-20T07:03:13;93930.78;;;12.81;42.64
33151;BME280;19508;42.578;23.416;2023-03-20T07:05:40;93932.09;;;13.56;41.87
33151;BME280;19508;42.578;23.416;2023-03-20T07:08:06;93922.38;;;13.86;41.45
33151;BME280;19508;42.578;23.416;2023-03-20T07:10:32;93929.34;;;14.43;39.92
33151;BME280;19508;42.578;23.416;2023-03-20T07:12:58;93918.56;;;14.27;39.15
33151;BME280;19508;42.578;23.416;2023-03-20T07:15:24;93926.09;;;14.40;39.12
33151;BME280;19508;42.578;23.416;2023-03-20T07:17:50;93928.56;;;14.37;38.82
33151;BME280;19508;42.578;23.416;2023-03-20T07:20:15;93929.41;;;14.27;38.13
33151;BME280;19508;42.578;23.416;2023-03-20T07:22:41;93930.47;;;14.21;38.91
33151;BME280;19508;42.578;23.416;2023-03-20T07:25:08;93928.84;;;14.25;38.83
33151;BME280;19508;42.578;23.416;2023-03-20T07:27:34;93930.97;;;14.44;38.78
33151;BME280;19508;42.578;23.416;2023-03-20T07:30:00;93925.84;;;14.32;37.73
33151;BME280;19508;42.578;23.416;2023-03-20T07:32:25;93923.88;;;14.73;39.02
33151;BME280;19508;42.578;23.416;2023-03-20T07:34:51;93921.03;;;15.04;37.63
33151;BME280;19508;42.578;23.416;2023-03-20T07:37:16;93908.78;;;15.61;36.70
33151;BME280;19508;42.578;23.416;2023-03-20T07:39:42;93923.38;;;16.09;35.63
33151;BME280;19508;42.578;23.416;2023-03-20T07:42:07;93920.44;;;16.58;34.05
33151;BME280;19508;42.578;23.416;2023-03-20T07:44:33;93908.00;;;17.00;33.11
33151;BME280;19508;42.578;23.416;2023-03-20T07:46:58;93905.03;;;16.78;33.11
33151;BME280;19508;42.578;23.416;2023-03-20T07:49:24;93908.94;;;17.14;34.12
33151;BME280;19508;42.578;23.416;2023-03-20T07:51:50;93903.25;;;17.72;32.25
33151;BME280;19508;42.578;23.416;2023-03-20T07:54:16;93895.38;;;17.52;32.16
33151;BME280;19508;42.578;23.416;2023-03-20T07:56:42;93905.88;;;17.40;32.58
33151;BME280;19508;42.578;23.416;2023-03-20T07:59:07;93901.16;;;17.64;32.01
33151;BME280;19508;42.578;23.416;2023-03-20T08:01:33;93906.59;;;18.02;32.21
33151;BME280;19508;42.578;23.416;2023-03-20T08:03:58;93903.09;;;18.15;31.43
33151;BME280;19508;42.578;23.416;2023-03-20T08:06:24;93907.38;;;18.02;33.23
33151;BME280;19508;42.578;23.416;2023-03-20T08:08:49;93912.13;;;18.76;31.87
33151;BME280;19508;42.578;23.416;2023-03-20T08:11:17;93917.91;;;18.09;33.28
33151;BME280;19508;42.578;23.416;2023-03-20T08:13:43;93915.06;;;18.00;32.98
33151;BME280;19508;42.578;23.416;2023-03-20T08:16:08;93922.09;;;17.88;33.32
33151;BME280;19508;42.578;23.416;2023-03-20T08:18:34;93918.78;;;17.10;35.00
33151;BME280;19508;42.578;23.416;2023-03-20T08:21:00;93927.94;;;16.72;35.61
33151;BME280;19508;42.578;23.416;2023-03-20T08:23:25;93920.94;;;16.89;36.95
33151;BME280;19508;42.578;23.416;2023-03-20T08:25:52;93926.88;;;17.15;35.44
33151;BME280;19508;42.578;23.416;2023-03-20T08:28:18;93930.00;;;17.28;34.36
33151;BME280;19508;42.578;23.416;2023-03-20T08:30:44;93932.91;;;17.12;34.62
33151;BME280;19508;42.578;23.416;2023-03-20T08:33:10;93935.94;;;17.30;34.87
33151;BME280;19508;42.578;23.416;2023-03-20T08:35:36;93918.59;;;17.44;34.03
33151;BME280;19508;42.578;23.416;2023-03-20T08:38:01;93927.47;;;17.74;34.35
33151;BME280;19508;42.578;23.416;2023-03-20T08:40:27;93925.31;;;17.90;34.28
33151;BME280;19508;42.578;23.416;2023-03-20T08:42:53;93923.25;;;18.33;32.65
33151;BME280;19508;42.578;23.416;2023-03-20T08:45:19;93916.72;;;18.48;34.32
33151;BME280;19508;42.578;23.416;2023-03-20T08:47:47;93902.97;;;18.39;32.92
33151;BME280;19508;42.578;23.416;2023-03-20T08:50:14;93897.72;;;18.89;32.75
33151;BME280;19508;42.578;23.416;2023-03-20T08:52:40;93903.13;;;19.03;32.50
33151;BME280;19508;42.578;23.416;2023-03-20T08:55:12;93908.38;;;19.40;30.59
33151;BME280;19508;42.578;23.416;2023-03-20T08:57:39;93905.91;;;19.53;31.81
33151;BME280;19508;42.578;23.416;2023-03-20T09:00:06;93911.06;;;19.90;30.18
33151;BME280;19508;42.578;23.416;2023-03-20T09:02:33;93907.03;;;19.52;31.13
33151;BME280;19508;42.578;23.416;2023-03-20T09:04:58;93905.91;;;19.53;31.45
33151;BME280;19508;42.578;23.416;2023-03-20T09:07:24;93898.13;;;19.60;32.53
33151;BME280;19508;42.578;23.416;2023-03-20T09:09:49;93898.25;;;20.36;29.53
33151;BME280;19508;42.578;23.416;2023-03-20T09:12:15;93886.31;;;20.85;30.60
33151;BME280;19508;42.578;23.416;2023-03-20T09:14:41;93896.63;;;21.28;28.55
33151;BME280;19508;42.578;23.416;2023-03-20T09:17:06;93896.38;;;21.16;28.43
33151;BME280;19508;42.578;23.416;2023-03-20T09:19:32;93888.94;;;20.68;29.73
33151;BME280;19508;42.578;23.416;2023-03-20T09:21:58;93890.78;;;20.81;29.70
33151;BME280;19508;42.578;23.416;2023-03-20T09:24:24;93894.19;;;20.55;30.17
33151;BME280;19508;42.578;23.416;2023-03-20T09:26:50;93885.81;;;21.31;30.40
33151;BME280;19508;42.578;23.416;2023-03-20T09:29:16;93886.78;;;21.35;29.76
33151;BME280;19508;42.578;23.416;2023-03-20T09:31:42;93878.19;;;21.20;29.68
33151;BME280;19508;42.578;23.416;2023-03-20T09:34:07;93873.47;;;22.03;29.21
33151;BME280;19508;42.578;23.416;2023-03-20T09:36:33;93872.66;;;21.77;28.97
33151;BME280;19508;42.578;23.416;2023-03-20T09:38:59;93868.13;;;22.33;28.59
33151;BME280;19508;42.578;23.416;2023-03-20T09:41:25;93871.94;;;22.66;29.68
33151;BME280;19508;42.578;23.416;2023-03-20T09:44:13;93859.69;;;22.46;28.77
33151;BME280;19508;42.578;23.416;2023-03-20T09:47:09;93861.19;;;22.35;28.72
33151;BME280;19508;42.578;23.416;2023-03-20T09:49:45;93858.56;;;22.56;27.91
33151;BME280;19508;42.578;23.416;2023-03-20T09:54:51;93837.50;;;23.45;26.98
33151;BME280;19508;42.578;23.416;2023-03-20T09:57:40;93841.06;;;23.16;26.34
33151;BME280;19508;42.578;23.416;2023-03-20T10:00:27;93829.81;;;23.30;26.70
33151;BME280;19508;42.578;23.416;2023-03-20T10:05:48;93827.41;;;22.52;27.47
33151;BME280;19508;42.578;23.416;2023-03-20T10:08:36;93814.94;;;23.10;28.03
33151;BME280;19508;42.578;23.416;2023-03-20T10:16:48;93795.00;;;23.43;28.09
33151;BME280;19508;42.578;23.416;2023-03-20T10:19:33;93793.50;;;24.08;26.30
33151;BME280;19508;42.578;23.416;2023-03-20T10:22:20;93786.94;;;24.33;26.20
33151;BME280;19508;42.578;23.416;2023-03-20T10:30:27;93790.81;;;24.65;25.51
33151;BME280;19508;42.578;23.416;2023-03-20T10:32:59;93784.97;;;25.03;25.68
33151;BME280;19508;42.578;23.416;2023-03-20T10:35:38;93781.50;;;24.94;25.84
33151;BME280;19508;42.578;23.416;2023-03-20T10:40:52;93775.78;;;25.12;24.78
33151;BME280;19508;42.578;23.416;2023-03-20T10:43:21;93773.03;;;24.99;24.93
33151;BME280;19508;42.578;23.416;2023-03-20T10:45:58;93772.19;;;24.50;25.98
33151;BME280;19508;42.578;23.416;2023-03-20T10:51:14;93756.94;;;24.40;26.78
33151;BME280;19508;42.578;23.416;2023-03-20T10:53:46;93766.94;;;24.45;25.34
33151;BME280;19508;42.578;23.416;2023-03-20T10:56:16;93762.44;;;24.07;24.64
33151;BME280;19508;42.578;23.416;2023-03-20T10:58:47;93769.81;;;24.15;24.39
33151;BME280;19508;42.578;23.416;2023-03-20T11:01:14;93760.41;;;24.74;23.94
33151;BME280;19508;42.578;23.416;2023-03-20T11:03:43;93747.09;;;25.00;24.39
33151;BME280;19508;42.578;23.416;2023-03-20T11:08:40;93735.72;;;25.67;21.52
33151;BME280;19508;42.578;23.416;2023-03-20T11:11:06;93733.75;;;26.07;22.08
33151;BME280;19508;42.578;23.416;2023-03-20T11:13:34;93736.59;;;25.43;21.66
33151;BME280;19508;42.578;23.416;2023-03-20T11:18:34;93731.69;;;25.36;23.37
33151;BME280;19508;42.578;23.416;2023-03-20T11:21:00;93719.91;;;25.11;21.82
33151;BME280;19508;42.578;23.416;2023-03-20T11:23:28;93717.00;;;25.20;21.41
33151;BME280;19508;42.578;23.416;2023-03-20T11:26:02;93721.72;;;25.72;20.48
33151;BME280;19508;42.578;23.416;2023-03-20T11:28:32;93707.38;;;25.94;20.78
33151;BME280;19508;42.578;23.416;2023-03-20T11:33:39;93708.75;;;26.32;20.41
33151;BME280;19508;42.578;23.416;2023-03-20T11:36:27;93709.78;;;25.96;20.31
33151;BME280;19508;42.578;23.416;2023-03-20T11:39:00;93701.13;;;25.41;21.07
33151;BME280;19508;42.578;23.416;2023-03-20T11:41:28;93707.28;;;24.98;21.95
33151;BME280;19508;42.578;23.416;2023-03-20T11:43:54;93697.00;;;25.63;21.69
33151;BME280;19508;42.578;23.416;2023-03-20T11:46:21;93680.31;;;25.56;21.46
33151;BME280;19508;42.578;23.416;2023-03-20T11:49:22;93685.94;;;26.03;21.50
33151;BME280;19508;42.578;23.416;2023-03-20T11:51:46;93684.09;;;26.07;21.16
33151;BME280;19508;42.578;23.416;2023-03-20T11:54:18;93686.53;;;26.72;20.81
33151;BME280;19508;42.578;23.416;2023-03-20T11:56:54;93680.81;;;27.51;19.58
33151;BME280;19508;42.578;23.416;2023-03-20T11:59:20;93667.38;;;28.11;19.15
33151;BME280;19508;42.578;23.416;2023-03-20T12:01:51;93663.72;;;28.72;19.03
33151;BME280;19508;42.578;23.416;2023-03-20T12:04:18;93661.78;;;29.56;18.80
33151;BME280;19508;42.578;23.416;2023-03-20T12:09:36;93667.34;;;28.99;18.01
33151;BME280;19508;42.578;23.416;2023-03-20T12:15:06;93659.69;;;27.43;19.65
33151;BME280;19508;42.578;23.416;2023-03-20T12:23:10;93653.22;;;29.08;17.82
33151;BME280;19508;42.578;23.416;2023-03-20T12:34:14;93627.38;;;29.94;16.95
33151;BME280;19508;42.578;23.416;2023-03-20T12:36:33;93618.69;;;29.62;17.11
33151;BME280;19508;42.578;23.416;2023-03-20T12:39:02;93623.22;;;29.77;17.54
33151;BME280;19508;42.578;23.416;2023-03-20T12:41:33;93619.09;;;30.38;16.50
33151;BME280;19508;42.578;23.416;2023-03-20T12:49:39;93612.91;;;31.94;15.38
33151;BME280;19508;42.578;23.416;2023-03-20T12:55:11;93597.78;;;31.81;14.69
33151;BME280;19508;42.578;23.416;2023-03-20T13:00:36;93600.63;;;33.23;14.17
33151;BME280;19508;42.578;23.416;2023-03-20T13:05:45;93586.69;;;33.37;14.16
33151;BME280;19508;42.578;23.416;2023-03-20T13:11:08;93588.34;;;32.74;13.96
33151;BME280;19508;42.578;23.416;2023-03-20T13:13:51;93579.31;;;31.44;14.77
33151;BME280;19508;42.578;23.416;2023-03-20T13:19:09;93579.91;;;31.05;14.83
33151;BME280;19508;42.578;23.416;2023-03-20T13:21:42;93590.19;;;30.43;15.86
33151;BME280;19508;42.578;23.416;2023-03-20T13:24:25;93572.88;;;30.64;16.02
33151;BME280;19508;42.578;23.416;2023-03-20T13:27:04;93566.25;;;29.90;15.98
33151;BME280;19508;42.578;23.416;2023-03-20T13:30:11;93562.19;;;29.13;17.18
33151;BME280;19508;42.578;23.416;2023-03-20T13:35:52;93562.31;;;27.69;17.98
33151;BME280;19508;42.578;23.416;2023-03-20T13:38:22;93559.44;;;26.68;17.94
33151;BME280;19508;42.578;23.416;2023-03-20T13:41:08;93555.34;;;27.36;17.71
33151;BME280;19508;42.578;23.416;2023-03-20T13:46:08;93547.63;;;26.52;19.67
33151;BME280;19508;42.578;23.416;2023-03-20T13:48:41;93551.94;;;26.18;19.17
33151;BME280;19508;42.578;23.416;2023-03-20T13:54:09;93546.75;;;24.97;19.85
33151;BME280;19508;42.578;23.416;2023-03-20T13:59:51;93541.16;;;24.54;19.66
33151;BME280;19508;42.578;23.416;2023-03-20T14:05:22;93545.06;;;23.79;20.68
33151;BME280;19508;42.578;23.416;2023-03-20T14:07:55;93543.78;;;23.64;20.98
33151;BME280;19508;42.578;23.416;2023-03-20T14:12:55;93529.84;;;23.94;20.94
33151;BME280;19508;42.578;23.416;2023-03-20T14:15:25;93526.50;;;24.13;21.38
33151;BME280;19508;42.578;23.416;2023-03-20T14:17:51;93524.22;;;24.39;20.15
33151;BME280;19508;42.578;23.416;2023-03-20T14:22:49;93512.34;;;24.91;20.07
33151;BME280;19508;42.578;23.416;2023-03-20T14:25:17;93518.63;;;25.48;19.33
33151;BME280;19508;42.578;23.416;2023-03-20T14:27:58;93508.03;;;24.78;19.60
33151;BME280;19508;42.578;23.416;2023-03-20T14:33:05;93503.00;;;24.80;20.13
33151;BME280;19508;42.578;23.416;2023-03-20T14:35:36;93499.31;;;24.76;20.73
33151;BME280;19508;42.578;23.416;2023-03-20T14:41:14;93497.53;;;25.24;18.96
33151;BME280;19508;42.578;23.416;2023-03-20T14:52:32;93494.75;;;25.08;19.39
33151;BME280;19508;42.578;23.416;2023-03-20T14:55:27;93492.84;;;25.56;18.43
33151;BME280;19508;42.578;23.416;2023-03-20T14:57:55;93499.88;;;25.53;18.38
33151;BME280;19508;42.578;23.416;2023-03-20T15:00:32;93498.38;;;25.12;18.73
33151;BME280;19508;42.578;23.416;2023-03-20T15:03:05;93501.13;;;25.12;19.09
33151;BME280;19508;42.578;23.416;2023-03-20T15:05:33;93500.19;;;24.92;19.19
33151;BME280;19508;42.578;23.416;2023-03-20T15:08:11;93494.84;;;24.31;21.67
33151;BME280;19508;42.578;23.416;2023-03-20T15:10:49;93498.34;;;23.67;22.98
33151;BME280;19508;42.578;23.416;2023-03-20T15:13:15;93501.97;;;23.01;23.53
33151;BME280;19508;42.578;23.416;2023-03-20T15:15:55;93502.97;;;22.43;24.68
33151;BME280;19508;42.578;23.416;2023-03-20T15:18:24;93505.38;;;21.94;25.89
33151;BME280;19508;42.578;23.416;2023-03-20T15:20:50;93508.16;;;21.56;26.21
33151;BME280;19508;42.578;23.416;2023-03-20T15:23:15;93497.00;;;21.14;27.16
33151;BME280;19508;42.578;23.416;2023-03-20T15:25:46;93494.69;;;20.87;27.55
33151;BME280;19508;42.578;23.416;2023-03-20T15:28:25;93504.88;;;20.51;27.49
33151;BME280;19508;42.578;23.416;2023-03-20T15:30:54;93500.19;;;20.26;27.81
33151;BME280;19508;42.578;23.416;2023-03-20T15:33:28;93497.72;;;19.98;28.34
33151;BME280;19508;42.578;23.416;2023-03-20T15:35:55;93487.75;;;19.85;28.59